createdAt,value
2023-04-18T00:01:01.734Z,30.75
2023-04-18T00:04:05.139Z,35.95
2023-04-18T00:07:07.992Z,31.17
2023-04-18T00:10:10.751Z,37.25
2023-04-18T00:13:14.642Z,36.08
2023-04-18T00:16:17.230Z,35.25
2023-04-18T00:19:20.079Z,43.60
2023-04-18T00:22:22.757Z,36.40
2023-04-18T00:25:25.417Z,40.97
2023-04-18T00:28:29.435Z,33.55
2023-04-18T00:31:32.499Z,34.78
2023-04-18T00:34:35.032Z,32.55
2023-04-18T00:37:38.121Z,41.00
2023-04-18T00:40:41.091Z,36.65
2023-04-18T00:43:45.023Z,32.63
2023-04-18T00:46:48.202Z,29.77
2023-04-18T00:49:50.751Z,34.92
2023-04-18T00:52:53.266Z,34.13
2023-04-18T00:55:56.049Z,36.13
2023-04-18T00:59:00.251Z,31.73
2023-04-18T01:02:03.794Z,31.10
2023-04-18T01:05:07.227Z,26.95
2023-04-18T01:08:09.809Z,28.05
2023-04-18T01:11:12.388Z,30.23
2023-04-18T01:14:16.329Z,26.67
2023-04-18T01:17:19.231Z,22.77
2023-04-18T01:20:22.656Z,26.83
2023-04-18T01:23:25.809Z,24.50
2023-04-18T01:26:29.929Z,26.08
2023-04-18T01:29:32.495Z,22.38
2023-04-18T01:32:35.008Z,21.45
2023-04-18T01:35:37.540Z,20.20
2023-04-18T01:38:40.112Z,20.35
2023-04-18T01:41:44.004Z,19.92
2023-04-18T01:44:46.576Z,19.60
2023-04-18T01:47:49.206Z,21.60
2023-04-18T01:50:51.740Z,15.63
2023-04-18T01:53:54.338Z,16.27
2023-04-18T01:56:58.232Z,14.90
2023-04-18T02:00:01.741Z,15.75
2023-04-18T02:03:04.618Z,14.50
2023-04-18T02:06:07.871Z,14.90
2023-04-18T02:09:10.728Z,14.00
2023-04-18T02:12:14.582Z,15.85
2023-04-18T02:15:17.066Z,13.93
2023-04-18T02:18:19.598Z,12.77
2023-04-18T02:21:22.636Z,18.33
2023-04-18T02:24:25.201Z,16.17
2023-04-18T02:27:29.100Z,14.50
2023-04-18T02:30:31.611Z,13.75
2023-04-18T02:33:34.166Z,13.13
2023-04-18T02:36:36.760Z,13.75
2023-04-18T02:39:39.299Z,14.15
2023-04-18T02:42:43.203Z,13.77
2023-04-18T02:45:45.799Z,14.60
2023-04-18T02:48:48.384Z,11.98
2023-04-18T02:51:50.991Z,13.27
2023-04-18T02:54:53.539Z,16.13
2023-04-18T02:57:57.807Z,16.75
2023-04-18T03:01:00.595Z,15.65
2023-04-18T03:04:03.249Z,19.08
2023-04-18T03:07:05.822Z,16.77
2023-04-18T03:10:08.867Z,14.18
2023-04-18T03:13:12.762Z,17.27
2023-04-18T03:16:15.828Z,17.25
2023-04-18T03:19:18.470Z,15.82
2023-04-18T03:22:20.991Z,15.77
2023-04-18T03:25:23.504Z,13.13
2023-04-18T03:28:27.386Z,16.35
2023-04-18T03:31:29.953Z,14.10
2023-04-18T03:34:32.507Z,15.57
2023-04-18T03:37:35.145Z,15.82
2023-04-18T03:40:37.706Z,16.65
2023-04-18T03:43:41.634Z,15.50
2023-04-18T03:46:44.189Z,15.18
2023-04-18T03:49:46.742Z,18.23
2023-04-18T03:52:49.269Z,14.55
2023-04-18T03:55:51.819Z,16.88
2023-04-18T03:58:55.696Z,14.60
2023-04-18T04:01:58.376Z,17.30
2023-04-18T04:05:02.561Z,20.33
2023-04-18T04:08:06.717Z,16.75
2023-04-18T04:11:09.378Z,16.27
2023-04-18T04:14:13.487Z,16.90
2023-04-18T04:17:16.382Z,16.20
2023-04-18T04:20:24.093Z,15.90
2023-04-18T04:23:26.784Z,16.08
2023-04-18T04:26:30.676Z,15.48
2023-04-18T04:29:35.209Z,15.50
2023-04-18T04:32:38.901Z,14.32
2023-04-18T04:35:41.777Z,18.95
2023-04-18T04:38:44.951Z,18.67
2023-04-18T04:41:47.521Z,14.07
2023-04-18T04:44:53.604Z,17.90
2023-04-18T04:47:56.174Z,20.05
2023-04-18T04:50:59.509Z,14.57
2023-04-18T04:54:02.046Z,15.55
2023-04-18T04:57:05.269Z,20.98
2023-04-18T05:00:11.360Z,20.90
2023-04-18T05:03:14.065Z,16.55
2023-04-18T05:06:20.517Z,16.65
2023-04-18T05:09:23.079Z,16.05
2023-04-18T05:12:26.755Z,21.45
2023-04-18T05:15:30.633Z,21.88
2023-04-18T05:18:35.124Z,15.88
2023-04-18T05:21:37.883Z,20.02
2023-04-18T05:24:41.124Z,23.80
2023-04-18T05:27:43.994Z,18.00
2023-04-18T05:30:47.921Z,17.13
2023-04-18T05:33:50.455Z,16.73
2023-04-18T05:36:53.038Z,20.88
2023-04-18T05:39:55.675Z,19.05
2023-04-18T05:42:58.220Z,19.30
2023-04-18T05:46:02.109Z,18.40
2023-04-18T05:49:04.729Z,17.88
2023-04-18T05:52:07.294Z,19.42
2023-04-18T05:55:10.520Z,17.80
2023-04-18T05:58:13.100Z,21.63
2023-04-18T06:01:18.510Z,18.20
2023-04-18T06:04:21.666Z,19.13
2023-04-18T06:07:25.350Z,17.27
2023-04-18T06:10:27.853Z,19.45
2023-04-18T06:13:30.332Z,22.90
2023-04-18T06:16:34.319Z,16.30
2023-04-18T06:19:36.987Z,18.77
2023-04-18T06:22:39.573Z,16.75
2023-04-18T06:25:42.272Z,21.75
2023-04-18T06:28:44.810Z,16.58
2023-04-18T06:31:48.707Z,18.10
2023-04-18T06:34:52.804Z,19.27
2023-04-18T06:37:55.522Z,21.35
2023-04-18T06:40:58.116Z,20.10
2023-04-18T06:44:04.199Z,17.38
2023-04-18T06:47:08.628Z,16.60
2023-04-18T06:50:11.593Z,19.48
2023-04-18T06:53:14.183Z,18.50
2023-04-18T06:56:16.759Z,17.15
2023-04-18T06:59:21.331Z,15.70
2023-04-18T07:02:25.291Z,17.60
2023-04-18T07:05:27.876Z,19.13
2023-04-18T07:08:30.725Z,19.35
2023-04-18T07:11:33.296Z,14.95
2023-04-18T07:14:35.878Z,16.42
2023-04-18T07:17:39.873Z,18.63
2023-04-18T07:20:42.654Z,20.95
2023-04-18T07:23:45.176Z,19.45
2023-04-18T07:26:47.741Z,18.00
2023-04-18T07:29:50.340Z,17.70
2023-04-18T07:32:54.304Z,16.27
2023-04-18T07:35:56.953Z,16.52
2023-04-18T07:38:59.499Z,19.45
2023-04-18T07:42:02.328Z,17.35
2023-04-18T07:45:05.770Z,21.45
2023-04-18T07:48:09.717Z,18.58
2023-04-18T07:51:12.294Z,17.75
2023-04-18T07:54:14.866Z,15.85
2023-04-18T07:57:17.403Z,18.95
2023-04-18T08:00:20.399Z,13.80
2023-04-18T08:03:24.492Z,18.77
2023-04-18T08:06:27.429Z,14.32
2023-04-18T08:09:30.022Z,15.90
2023-04-18T08:12:32.570Z,14.98
2023-04-18T08:15:35.207Z,14.23
2023-04-18T08:18:39.095Z,17.42
2023-04-18T08:21:41.709Z,15.80
2023-04-18T08:25:01.029Z,16.48
2023-04-18T08:28:06.647Z,17.30
2023-04-18T08:31:13.009Z,16.75
2023-04-18T08:34:16.914Z,16.58
2023-04-18T08:37:19.506Z,16.58
2023-04-18T08:40:22.154Z,17.00
2023-04-18T08:43:25.340Z,15.98
2023-04-18T08:46:29.969Z,13.52
2023-04-18T08:49:33.917Z,15.13
2023-04-18T08:52:37.631Z,11.13
2023-04-18T08:55:40.455Z,16.95
2023-04-18T08:58:45.085Z,14.82
2023-04-18T09:01:52.814Z,11.93
2023-04-18T09:04:57.379Z,11.07
2023-04-18T09:07:59.949Z,9.20
2023-04-18T09:11:24.010Z,8.75
2023-04-18T09:14:27.225Z,10.68
2023-04-18T09:17:33.921Z,9.80
2023-04-18T09:20:39.907Z,7.63
2023-04-18T09:23:42.411Z,10.73
2023-04-18T09:26:44.922Z,7.20
2023-04-18T09:29:49.336Z,13.07
2023-04-18T09:32:58.261Z,8.07
2023-04-18T09:36:20.815Z,10.60
2023-04-18T09:39:28.118Z,11.07
2023-04-18T09:42:32.025Z,10.48
2023-04-18T09:45:34.560Z,10.27
2023-04-18T09:48:37.162Z,9.55
2023-04-18T09:51:41.416Z,9.73
2023-04-18T09:54:44.862Z,15.10
2023-04-18T09:57:49.289Z,11.15
2023-04-18T10:00:52.169Z,9.52
2023-04-18T10:03:54.810Z,10.90
2023-04-18T10:06:58.838Z,7.60
2023-04-18T10:10:01.366Z,10.40
2023-04-18T10:13:03.892Z,9.20
2023-04-18T10:16:06.886Z,10.80
2023-04-18T10:19:23.561Z,6.65
2023-04-18T10:22:29.366Z,8.95
2023-04-18T10:25:49.182Z,8.60
2023-04-18T10:28:54.439Z,10.77
2023-04-18T10:31:57.366Z,12.60
2023-04-18T10:35:00.483Z,8.82
2023-04-18T10:38:04.324Z,11.27
2023-04-18T10:41:23.597Z,9.10
2023-04-18T10:44:27.464Z,8.43
2023-04-18T10:47:30.073Z,7.35
2023-04-18T10:50:32.825Z,8.75
2023-04-18T10:53:36.696Z,10.02
2023-04-18T10:56:39.563Z,9.30
2023-04-18T10:59:43.731Z,8.40
2023-04-18T11:02:50.267Z,8.85
2023-04-18T11:05:52.965Z,11.40
2023-04-18T11:09:12.440Z,5.90
2023-04-18T11:12:14.984Z,8.05
2023-04-18T11:15:21.218Z,9.80
2023-04-18T11:18:23.934Z,5.82
2023-04-18T11:21:30.319Z,8.32
2023-04-18T11:24:34.888Z,11.43
2023-04-18T11:27:37.431Z,8.80
2023-04-18T11:30:40.334Z,10.98
2023-04-18T11:33:42.854Z,8.77
2023-04-18T11:36:45.417Z,9.80
2023-04-18T11:39:49.325Z,9.35
2023-04-18T11:42:51.867Z,7.90
2023-04-18T11:45:54.984Z,9.05
2023-04-18T11:48:57.587Z,7.50
2023-04-18T11:52:01.081Z,9.43
2023-04-18T11:55:14.011Z,9.40
2023-04-18T11:58:16.760Z,8.05
2023-04-18T12:01:19.700Z,9.60
2023-04-18T12:04:22.531Z,7.45
2023-04-18T12:07:35.966Z,7.45
2023-04-18T12:10:46.069Z,12.00
2023-04-18T12:13:48.668Z,6.07
2023-04-18T12:16:51.192Z,7.25
2023-04-18T12:19:55.391Z,6.40
2023-04-18T12:22:58.474Z,6.55
2023-04-18T12:26:03.636Z,7.32
2023-04-18T12:29:06.192Z,8.82
2023-04-18T12:32:08.698Z,6.93
2023-04-18T12:35:11.276Z,7.57
2023-04-18T12:38:13.785Z,7.38
2023-04-18T12:41:17.736Z,6.45
2023-04-18T12:44:20.784Z,5.78
2023-04-18T12:47:23.336Z,5.47
2023-04-18T12:50:26.597Z,4.28
2023-04-18T12:53:29.182Z,6.68
2023-04-18T12:56:33.093Z,7.05
2023-04-18T12:59:35.681Z,5.80
2023-04-18T13:02:38.794Z,11.35
2023-04-18T13:05:41.623Z,9.10
2023-04-18T13:08:44.494Z,8.85
2023-04-18T13:11:49.608Z,8.57
2023-04-18T13:14:52.277Z,9.68
2023-04-18T13:17:55.826Z,10.10
2023-04-18T13:20:58.404Z,8.43
2023-04-18T13:24:00.945Z,11.32
2023-04-18T13:27:10.213Z,9.77
2023-04-18T13:30:13.053Z,10.88
2023-04-18T13:33:15.704Z,10.40
2023-04-18T13:36:18.294Z,9.77
2023-04-18T13:39:21.384Z,14.93
2023-04-18T13:42:25.312Z,13.90
2023-04-18T13:45:28.249Z,14.52
2023-04-18T13:48:30.898Z,12.27
2023-04-18T13:51:33.804Z,10.50
2023-04-18T13:54:37.272Z,10.25
2023-04-18T13:57:41.235Z,12.48
2023-04-18T14:00:43.833Z,11.63
2023-04-18T14:03:47.269Z,13.68
2023-04-18T14:06:50.059Z,12.25
2023-04-18T14:09:53.823Z,9.85
2023-04-18T14:12:58.006Z,12.20
2023-04-18T14:16:00.718Z,9.95
2023-04-18T14:19:03.349Z,13.52
2023-04-18T14:22:07.118Z,11.55
2023-04-18T14:25:10.865Z,14.25
2023-04-18T14:28:15.609Z,12.68
2023-04-18T14:31:18.156Z,12.32
2023-04-18T14:34:20.775Z,12.10
2023-04-18T14:37:23.332Z,10.43
2023-04-18T14:40:25.924Z,12.25
2023-04-18T14:43:29.909Z,16.45
2023-04-18T14:46:32.499Z,13.20
2023-04-18T14:49:35.119Z,11.20
2023-04-18T14:52:37.709Z,15.77
2023-04-18T14:55:40.424Z,12.98
2023-04-18T14:58:44.802Z,15.65
2023-04-18T15:01:47.472Z,15.77
2023-04-18T15:04:50.935Z,15.68
2023-04-18T15:07:53.499Z,15.57
2023-04-18T15:10:56.182Z,13.38
2023-04-18T15:14:00.131Z,15.88
2023-04-18T15:17:02.883Z,16.33
2023-04-18T15:20:07.275Z,14.65
2023-04-18T15:23:13.491Z,18.67
2023-04-18T15:26:16.424Z,19.98
2023-04-18T15:29:20.621Z,14.02
2023-04-18T15:32:23.246Z,16.23
2023-04-18T15:35:26.194Z,15.35
2023-04-18T15:38:29.668Z,17.55
2023-04-18T15:41:34.792Z,17.23
2023-04-18T15:44:38.699Z,16.08
2023-04-18T15:47:41.636Z,16.48
2023-04-18T15:50:44.222Z,16.65
2023-04-18T15:53:46.751Z,13.68
2023-04-18T15:56:49.286Z,17.48
2023-04-18T15:59:53.133Z,15.75
2023-04-18T16:02:55.853Z,15.43
2023-04-18T16:05:58.482Z,15.10
2023-04-18T16:09:01.041Z,10.80
2023-04-18T16:12:04.624Z,13.05
2023-04-18T16:15:09.782Z,12.57
2023-04-18T16:18:12.326Z,14.48
2023-04-18T16:21:15.147Z,17.83
2023-04-18T16:24:17.741Z,16.52
2023-04-18T16:27:20.513Z,16.85
2023-04-18T16:30:24.388Z,15.07
2023-04-18T16:33:27.073Z,11.65
2023-04-18T16:36:29.741Z,9.55
2023-04-18T16:39:32.270Z,17.92
2023-04-18T16:42:34.812Z,12.32
2023-04-18T16:45:38.740Z,14.60
2023-04-18T16:48:41.707Z,13.18
2023-04-18T16:51:44.232Z,14.00
2023-04-18T16:54:46.825Z,16.80
2023-04-18T16:57:49.349Z,15.77
2023-04-18T17:00:53.668Z,18.13
2023-04-18T17:03:56.299Z,12.63
2023-04-18T17:06:59.023Z,11.32
2023-04-18T17:10:01.593Z,16.45
2023-04-18T17:13:04.411Z,14.90
2023-04-18T17:16:08.870Z,15.18
2023-04-18T17:19:11.485Z,16.63
2023-04-18T17:22:14.091Z,15.82
2023-04-18T17:25:16.681Z,15.00
2023-04-18T17:28:19.420Z,10.25
2023-04-18T17:31:23.415Z,13.73
2023-04-18T17:34:26.900Z,17.30
2023-04-18T17:37:29.422Z,15.73
2023-04-18T17:40:31.911Z,14.25
2023-04-18T17:43:34.440Z,10.70
2023-04-18T17:46:38.416Z,13.68
2023-04-18T17:49:40.956Z,16.70
2023-04-18T17:52:43.919Z,15.68
2023-04-18T17:55:50.343Z,16.10
2023-04-18T17:58:55.285Z,13.98
2023-04-18T18:02:00.377Z,15.40
2023-04-18T18:05:02.899Z,13.50
2023-04-18T18:08:05.782Z,16.02
2023-04-18T18:11:08.920Z,14.80
2023-04-18T18:14:11.467Z,16.48
2023-04-18T18:17:15.313Z,13.10
2023-04-18T18:20:17.913Z,17.05
2023-04-18T18:23:20.471Z,14.25
2023-04-18T18:26:22.964Z,18.95
2023-04-18T18:29:25.541Z,15.05
2023-04-18T18:32:29.519Z,14.95
2023-04-18T18:35:32.101Z,12.18
2023-04-18T18:38:34.652Z,15.75
2023-04-18T18:41:37.144Z,13.57
2023-04-18T18:44:39.711Z,13.23
2023-04-18T18:47:43.604Z,16.83
2023-04-18T18:50:46.110Z,12.75
2023-04-18T18:53:48.633Z,15.27
2023-04-18T18:56:51.692Z,22.50
2023-04-18T18:59:55.853Z,19.45
2023-04-18T19:03:00.235Z,17.65
2023-04-18T19:06:04.186Z,15.40
2023-04-18T19:09:07.116Z,17.20
2023-04-18T19:12:09.918Z,13.77
2023-04-18T19:15:12.965Z,15.90
2023-04-18T19:18:18.228Z,17.83
2023-04-18T19:21:21.065Z,14.82
2023-04-18T19:24:23.643Z,12.88
2023-04-18T19:27:26.907Z,17.92
2023-04-18T19:30:29.622Z,16.77
2023-04-18T19:33:33.485Z,15.57
2023-04-18T19:36:36.015Z,15.85
2023-04-18T19:39:38.571Z,16.20
2023-04-18T19:42:41.153Z,13.48
2023-04-18T19:45:43.750Z,13.00
2023-04-18T19:48:47.624Z,12.68
2023-04-18T19:51:51.371Z,14.57
2023-04-18T19:54:53.982Z,13.70
2023-04-18T19:57:56.692Z,16.40
2023-04-18T20:00:59.349Z,14.18
2023-04-18T20:04:03.749Z,14.43
2023-04-18T20:07:06.510Z,17.17
2023-04-18T20:10:10.321Z,14.30
2023-04-18T20:13:12.893Z,14.90
2023-04-18T20:16:16.764Z,13.95
2023-04-18T20:19:20.675Z,15.90
2023-04-18T20:22:24.794Z,14.73
2023-04-18T20:25:27.385Z,14.48
2023-04-18T20:28:30.185Z,14.43
2023-04-18T20:31:32.758Z,12.55
2023-04-18T20:34:37.630Z,11.48
2023-04-18T20:37:41.262Z,11.80
2023-04-18T20:40:44.793Z,11.52
2023-04-18T20:43:47.361Z,15.82
2023-04-18T20:46:49.940Z,15.55
2023-04-18T20:49:53.789Z,17.08
2023-04-18T20:52:56.363Z,18.92
2023-04-18T20:55:58.934Z,15.23
2023-04-18T20:59:01.473Z,17.83
2023-04-18T21:02:04.382Z,13.90
2023-04-18T21:05:08.975Z,15.65
2023-04-18T21:08:11.766Z,16.40
2023-04-18T21:11:14.276Z,15.18
2023-04-18T21:14:17.222Z,12.05
2023-04-18T21:17:20.113Z,12.13
2023-04-18T21:20:24.214Z,10.73
2023-04-18T21:23:26.740Z,12.80
2023-04-18T21:26:29.295Z,15.90
2023-04-18T21:29:31.892Z,12.35
2023-04-18T21:32:34.478Z,14.35
2023-04-18T21:35:38.436Z,10.85
2023-04-18T21:38:41.000Z,12.43
2023-04-18T21:41:43.572Z,10.13
2023-04-18T21:44:46.162Z,17.13
2023-04-18T21:47:49.486Z,13.20
2023-04-18T21:50:56.005Z,12.48
2023-04-18T21:53:58.921Z,11.30
2023-04-18T21:57:02.478Z,13.63
2023-04-18T22:00:07.316Z,13.60
2023-04-18T22:03:12.091Z,12.05
2023-04-18T22:06:16.557Z,18.20
2023-04-18T22:09:19.326Z,12.75
2023-04-18T22:12:22.038Z,12.80
2023-04-18T22:15:26.779Z,12.05
2023-04-18T22:18:30.498Z,16.52
2023-04-18T22:21:34.408Z,19.27
2023-04-18T22:24:37.002Z,15.35
2023-04-18T22:27:39.546Z,13.65
2023-04-18T22:30:42.147Z,13.10
2023-04-18T22:33:44.726Z,19.15
2023-04-18T22:36:48.600Z,11.93
2023-04-18T22:39:51.101Z,17.45
2023-04-18T22:42:54.248Z,17.35
2023-04-18T22:45:56.835Z,13.45
2023-04-18T22:48:59.561Z,14.93
2023-04-18T22:52:03.526Z,15.10
2023-04-18T22:55:06.860Z,11.95
2023-04-18T22:58:09.858Z,12.38
2023-04-18T23:01:12.476Z,11.75
2023-04-18T23:04:15.356Z,12.30
2023-04-18T23:07:19.521Z,10.98
2023-04-18T23:10:22.486Z,12.40
2023-04-18T23:13:25.076Z,12.13
2023-04-18T23:16:28.152Z,11.77
2023-04-18T23:19:30.693Z,13.68
2023-04-18T23:22:34.580Z,11.52
2023-04-18T23:25:37.111Z,10.75
2023-04-18T23:28:39.722Z,12.68
2023-04-18T23:31:42.329Z,11.75
2023-04-18T23:34:46.086Z,11.73
2023-04-18T23:37:50.139Z,12.57
2023-04-18T23:40:52.714Z,12.13
2023-04-18T23:43:55.264Z,13.80
2023-04-18T23:46:57.785Z,11.93
2023-04-18T23:50:00.361Z,10.20
2023-04-18T23:53:04.272Z,8.80
2023-04-18T23:56:07.793Z,10.85
2023-04-18T23:59:10.388Z,9.32
